sensor_id;sensor_type;location;lat;lon;timestamp;pressure;altitude;pressure_sealevel;temperature;humidity
54172;BME280;40076;52.354;4.970;2023-04-24T00:00:18;99760.75;;;12.45;100.00
54172;BME280;40076;52.354;4.970;2023-04-24T00:02:44;99762.66;;;12.44;100.00
54172;BME280;40076;52.354;4.970;2023-04-24T00:05:13;99760.34;;;12.43;100.00
54172;BME280;40076;52.354;4.970;2023-04-24T00:07:39;99769.59;;;12.42;100.00
54172;BME280;40076;52.354;4.970;2023-04-24T00:10:05;99766.47;;;12.40;100.00
54172;BME280;40076;52.354;4.970;2023-04-24T00:12:31;99772.16;;;12.34;100.00
54172;BME280;40076;52.354;4.970;2023-04-24T00:14:56;99776.66;;;12.27;100.00
54172;BME280;40076;52.354;4.970;2023-04-24T00:17:22;99785.41;;;12.20;100.00
54172;BME280;40076;52.354;4.970;2023-04-24T00:19:47;99789.97;;;12.16;100.00
54172;BME280;40076;52.354;4.970;2023-04-24T00:22:13;99799.00;;;12.05;100.00
54172;BME280;40076;52.354;4.970;2023-04-24T00:24:39;99804.75;;;12.03;100.00
54172;BME280;40076;52.354;4.970;2023-04-24T00:27:04;99818.66;;;12.02;100.00
54172;BME280;40076;52.354;4.970;2023-04-24T00:29:30;99822.06;;;11.98;100.00
54172;BME280;40076;52.354;4.970;2023-04-24T00:31:55;99832.81;;;11.95;100.00
54172;BME280;40076;52.354;4.970;2023-04-24T00:34:21;99835.41;;;11.91;100.00
54172;BME280;40076;52.354;4.970;2023-04-24T00:36:46;99845.06;;;11.89;100.00
54172;BME280;40076;52.354;4.970;2023-04-24T00:39:11;99845.41;;;11.87;100.00
54172;BME280;40076;52.354;4.970;2023-04-24T00:41:37;99848.00;;;11.84;100.00
54172;BME280;40076;52.354;4.970;2023-04-24T00:44:02;99848.38;;;11.82;100.00
54172;BME280;40076;52.354;4.970;2023-04-24T00:46:28;99846.03;;;11.81;100.00
54172;BME280;40076;52.354;4.970;2023-04-24T00:48:53;99846.34;;;11.79;100.00
54172;BME280;40076;52.354;4.970;2023-04-24T00:51:20;99852.13;;;11.78;100.00
54172;BME280;40076;52.354;4.970;2023-04-24T00:53:46;99855.63;;;11.78;100.00
54172;BME280;40076;52.354;4.970;2023-04-24T00:56:11;99862.16;;;11.77;100.00
54172;BME280;40076;52.354;4.970;2023-04-24T00:58:36;99864.06;;;11.77;100.00
54172;BME280;40076;52.354;4.970;2023-04-24T01:01:02;99865.22;;;11.76;100.00
54172;BME280;40076;52.354;4.970;2023-04-24T01:03:32;99863.66;;;11.75;100.00
54172;BME280;40076;52.354;4.970;2023-04-24T01:05:58;99872.53;;;11.75;100.00
54172;BME280;40076;52.354;4.970;2023-04-24T01:08:24;99874.50;;;11.75;100.00
54172;BME280;40076;52.354;4.970;2023-04-24T01:10:52;99877.94;;;11.75;100.00
54172;BME280;40076;52.354;4.970;2023-04-24T01:13:18;99877.19;;;11.75;100.00
54172;BME280;40076;52.354;4.970;2023-04-24T01:15:45;99876.72;;;11.73;100.00
54172;BME280;40076;52.354;4.970;2023-04-24T01:18:10;99878.97;;;11.71;100.00
54172;BME280;40076;52.354;4.970;2023-04-24T01:20:36;99876.63;;;11.69;100.00
54172;BME280;40076;52.354;4.970;2023-04-24T01:23:05;99878.91;;;11.67;100.00
54172;BME280;40076;52.354;4.970;2023-04-24T01:25:31;99884.66;;;11.66;100.00
54172;BME280;40076;52.354;4.970;2023-04-24T01:27:57;99881.16;;;11.65;100.00
54172;BME280;40076;52.354;4.970;2023-04-24T01:30:22;99891.88;;;11.61;100.00
54172;BME280;40076;52.354;4.970;2023-04-24T01:32:48;99885.69;;;11.61;100.00
54172;BME280;40076;52.354;4.970;2023-04-24T01:35:13;99883.69;;;11.58;100.00
54172;BME280;40076;52.354;4.970;2023-04-24T01:37:39;99882.91;;;11.57;100.00
54172;BME280;40076;52.354;4.970;2023-04-24T01:40:06;99887.09;;;11.55;100.00
54172;BME280;40076;52.354;4.970;2023-04-24T01:42:32;99888.13;;;11.50;100.00
54172;BME280;40076;52.354;4.970;2023-04-24T01:44:58;99883.06;;;11.49;100.00
54172;BME280;40076;52.354;4.970;2023-04-24T01:47:24;99887.25;;;11.46;100.00
54172;BME280;40076;52.354;4.970;2023-04-24T01:49:50;99888.75;;;11.44;100.00
54172;BME280;40076;52.354;4.970;2023-04-24T01:52:15;99885.81;;;11.37;100.00
54172;BME280;40076;52.354;4.970;2023-04-24T01:54:41;99890.81;;;11.35;100.00
54172;BME280;40076;52.354;4.970;2023-04-24T01:57:07;99896.13;;;11.31;100.00
54172;BME280;40076;52.354;4.970;2023-04-24T01:59:33;99892.22;;;11.29;100.00
54172;BME280;40076;52.354;4.970;2023-04-24T02:01:58;99894.81;;;11.25;100.00
54172;BME280;40076;52.354;4.970;2023-04-24T02:04:23;99897.84;;;11.23;100.00
54172;BME280;40076;52.354;4.970;2023-04-24T02:06:49;99892.44;;;11.23;100.00
54172;BME280;40076;52.354;4.970;2023-04-24T02:09:14;99897.41;;;11.21;100.00
54172;BME280;40076;52.354;4.970;2023-04-24T02:11:39;99898.91;;;11.19;100.00
54172;BME280;40076;52.354;4.970;2023-04-24T02:14:05;99899.22;;;11.17;100.00
54172;BME280;40076;52.354;4.970;2023-04-24T02:16:30;99891.47;;;11.16;100.00
54172;BME280;40076;52.354;4.970;2023-04-24T02:18:57;99899.13;;;11.14;100.00
54172;BME280;40076;52.354;4.970;2023-04-24T02:21:22;99902.19;;;11.12;100.00
54172;BME280;40076;52.354;4.970;2023-04-24T02:23:48;99905.25;;;11.11;100.00
54172;BME280;40076;52.354;4.970;2023-04-24T02:26:13;99907.94;;;11.11;100.00
54172;BME280;40076;52.354;4.970;2023-04-24T02:28:38;99906.81;;;11.12;100.00
54172;BME280;40076;52.354;4.970;2023-04-24T02:31:04;99913.34;;;11.11;100.00
54172;BME280;40076;52.354;4.970;2023-04-24T02:33:30;99911.78;;;11.10;100.00
54172;BME280;40076;52.354;4.970;2023-04-24T02:35:55;99905.56;;;11.09;100.00
54172;BME280;40076;52.354;4.970;2023-04-24T02:38:20;99909.41;;;11.08;100.00
54172;BME280;40076;52.354;4.970;2023-04-24T02:44:25;99906.63;;;11.05;100.00
54172;BME280;40076;52.354;4.970;2023-04-24T02:46:50;99908.53;;;11.04;100.00
54172;BME280;40076;52.354;4.970;2023-04-24T02:49:15;99910.91;;;11.06;100.00
54172;BME280;40076;52.354;4.970;2023-04-24T02:51:41;99912.44;;;11.07;100.00
54172;BME280;40076;52.354;4.970;2023-04-24T02:54:07;99912.03;;;11.05;100.00
54172;BME280;40076;52.354;4.970;2023-04-24T02:56:34;99905.84;;;11.04;100.00
54172;BME280;40076;52.354;4.970;2023-04-24T02:58:59;99911.25;;;11.04;100.00
54172;BME280;40076;52.354;4.970;2023-04-24T03:01:24;99909.31;;;11.05;100.00
54172;BME280;40076;52.354;4.970;2023-04-24T03:03:50;99910.91;;;11.06;100.00
54172;BME280;40076;52.354;4.970;2023-04-24T03:06:15;99908.53;;;11.04;100.00
54172;BME280;40076;52.354;4.970;2023-04-24T03:08:41;99904.25;;;11.03;100.00
54172;BME280;40076;52.354;4.970;2023-04-24T03:11:06;99901.88;;;11.02;100.00
54172;BME280;40076;52.354;4.970;2023-04-24T03:13:31;99906.50;;;11.01;100.00
54172;BME280;40076;52.354;4.970;2023-04-24T03:15:56;99894.91;;;11.01;100.00
54172;BME280;40076;52.354;4.970;2023-04-24T03:18:22;99905.72;;;11.01;100.00
54172;BME280;40076;52.354;4.970;2023-04-24T03:20:47;99908.41;;;11.01;100.00
54172;BME280;40076;52.354;4.970;2023-04-24T03:23:12;99904.13;;;11.00;100.00
54172;BME280;40076;52.354;4.970;2023-04-24T03:25:38;99908.75;;;10.99;100.00
54172;BME280;40076;52.354;4.970;2023-04-24T03:28:03;99909.91;;;10.98;100.00
54172;BME280;40076;52.354;4.970;2023-04-24T03:30:29;99914.16;;;10.99;100.00
54172;BME280;40076;52.354;4.970;2023-04-24T03:32:54;99909.53;;;11.00;100.00
54172;BME280;40076;52.354;4.970;2023-04-24T03:35:20;99907.53;;;10.97;100.00
54172;BME280;40076;52.354;4.970;2023-04-24T03:37:47;99907.88;;;10.95;100.00
54172;BME280;40076;52.354;4.970;2023-04-24T03:40:12;99907.09;;;10.95;100.00
54172;BME280;40076;52.354;4.970;2023-04-24T03:42:37;99918.25;;;10.93;100.00
54172;BME280;40076;52.354;4.970;2023-04-24T03:45:03;99920.16;;;10.93;100.00
54172;BME280;40076;52.354;4.970;2023-04-24T03:47:28;99917.47;;;10.93;100.00
54172;BME280;40076;52.354;4.970;2023-04-24T03:49:53;99915.88;;;10.92;100.00
54172;BME280;40076;52.354;4.970;2023-04-24T03:52:20;99915.09;;;10.91;100.00
54172;BME280;40076;52.354;4.970;2023-04-24T03:54:46;99915.47;;;10.90;100.00
54172;BME280;40076;52.354;4.970;2023-04-24T03:57:11;99925.47;;;10.89;100.00
54172;BME280;40076;52.354;4.970;2023-04-24T03:59:36;99927.06;;;10.90;100.00
54172;BME280;40076;52.354;4.970;2023-04-24T04:02:01;99930.09;;;10.89;100.00
54172;BME280;40076;52.354;4.970;2023-04-24T04:04:27;99916.91;;;10.87;100.00
54172;BME280;40076;52.354;4.970;2023-04-24T04:06:52;99922.00;;;10.89;100.00
54172;BME280;40076;52.354;4.970;2023-04-24T04:09:18;99923.13;;;10.88;100.00
54172;BME280;40076;52.354;4.970;2023-04-24T04:11:43;99935.50;;;10.89;100.00
54172;BME280;40076;52.354;4.970;2023-04-24T04:14:09;99936.63;;;10.88;100.00
54172;BME280;40076;52.354;4.970;2023-04-24T04:16:34;99943.16;;;10.87;100.00
54172;BME280;40076;52.354;4.970;2023-04-24T04:19:01;99946.66;;;10.87;100.00
54172;BME280;40076;52.354;4.970;2023-04-24T04:21:28;99947.44;;;10.88;100.00
54172;BME280;40076;52.354;4.970;2023-04-24T04:23:53;99950.47;;;10.86;100.00
54172;BME280;40076;52.354;4.970;2023-04-24T04:26:18;99950.81;;;10.84;100.00
54172;BME280;40076;52.354;4.970;2023-04-24T04:28:46;99956.22;;;10.84;100.00
54172;BME280;40076;52.354;4.970;2023-04-24T04:31:12;99959.28;;;10.83;100.00
54172;BME280;40076;52.354;4.970;2023-04-24T04:33:38;99963.53;;;10.84;100.00
54172;BME280;40076;52.354;4.970;2023-04-24T04:36:04;99967.38;;;10.83;100.00
54172;BME280;40076;52.354;4.970;2023-04-24T04:38:30;99981.25;;;10.81;100.00
54172;BME280;40076;52.354;4.970;2023-04-24T04:40:55;99983.16;;;10.81;100.00
54172;BME280;40076;52.354;4.970;2023-04-24T04:43:22;99987.31;;;10.78;100.00
54172;BME280;40076;52.354;4.970;2023-04-24T04:45:48;99986.84;;;10.76;100.00
54172;BME280;40076;52.354;4.970;2023-04-24T04:48:13;99992.63;;;10.75;100.00
54172;BME280;40076;52.354;4.970;2023-04-24T04:50:39;99989.13;;;10.74;100.00
54172;BME280;40076;52.354;4.970;2023-04-24T04:53:04;99989.13;;;10.74;100.00
54172;BME280;40076;52.354;4.970;2023-04-24T04:55:30;99986.44;;;10.74;100.00
54172;BME280;40076;52.354;4.970;2023-04-24T04:57:56;99999.16;;;10.74;100.00
54172;BME280;40076;52.354;4.970;2023-04-24T05:00:21;99999.94;;;10.74;100.00
54172;BME280;40076;52.354;4.970;2023-04-24T05:02:46;100002.19;;;10.72;100.00
54172;BME280;40076;52.354;4.970;2023-04-24T05:05:12;99999.81;;;10.71;100.00
54172;BME280;40076;52.354;4.970;2023-04-24T05:07:38;100003.63;;;10.70;100.00
54172;BME280;40076;52.354;4.970;2023-04-24T05:10:03;100002.84;;;10.69;100.00
54172;BME280;40076;52.354;4.970;2023-04-24T05:12:29;100005.91;;;10.68;100.00
54172;BME280;40076;52.354;4.970;2023-04-24T05:14:54;100011.66;;;10.66;100.00
54172;BME280;40076;52.354;4.970;2023-04-24T05:17:19;100018.50;;;10.64;100.00
54172;BME280;40076;52.354;4.970;2023-04-24T05:19:45;100026.16;;;10.62;100.00
54172;BME280;40076;52.354;4.970;2023-04-24T05:22:11;100034.97;;;10.59;100.00
54172;BME280;40076;52.354;4.970;2023-04-24T05:24:37;100034.97;;;10.59;100.00
54172;BME280;40076;52.354;4.970;2023-04-24T05:27:03;100042.13;;;10.55;100.00
54172;BME280;40076;52.354;4.970;2023-04-24T05:29:29;100047.44;;;10.51;100.00
54172;BME280;40076;52.354;4.970;2023-04-24T05:31:58;100061.94;;;10.47;100.00
54172;BME280;40076;52.354;4.970;2023-04-24T05:34:23;100064.22;;;10.44;100.00
54172;BME280;40076;52.354;4.970;2023-04-24T05:36:50;100064.66;;;10.47;100.00
54172;BME280;40076;52.354;4.970;2023-04-24T05:39:15;100075.34;;;10.43;100.00
54172;BME280;40076;52.354;4.970;2023-04-24T05:41:41;100088.72;;;10.39;100.00
54172;BME280;40076;52.354;4.970;2023-04-24T05:44:06;100092.09;;;10.36;100.00
54172;BME280;40076;52.354;4.970;2023-04-24T05:46:31;100093.88;;;10.32;100.00
54172;BME280;40076;52.354;4.970;2023-04-24T05:48:57;100104.91;;;10.27;100.00
54172;BME280;40076;52.354;4.970;2023-04-24T05:51:22;100120.88;;;10.20;100.00
54172;BME280;40076;52.354;4.970;2023-04-24T05:53:47;100126.69;;;10.22;100.00
54172;BME280;40076;52.354;4.970;2023-04-24T05:56:13;100138.19;;;10.19;100.00
54172;BME280;40076;52.354;4.970;2023-04-24T05:58:38;100134.75;;;10.10;100.00
54172;BME280;40076;52.354;4.970;2023-04-24T06:01:04;100137.13;;;10.12;100.00
54172;BME280;40076;52.354;4.970;2023-04-24T06:03:30;100142.03;;;10.10;100.00
54172;BME280;40076;52.354;4.970;2023-04-24T06:05:55;100152.50;;;10.11;100.00
54172;BME280;40076;52.354;4.970;2023-04-24T06:08:21;100159.81;;;10.11;100.00
54172;BME280;40076;52.354;4.970;2023-04-24T06:10:46;100170.47;;;10.07;100.00
54172;BME280;40076;52.354;4.970;2023-04-24T06:13:11;100171.16;;;10.04;100.00
54172;BME280;40076;52.354;4.970;2023-04-24T06:15:37;100168.94;;;10.06;100.00
54172;BME280;40076;52.354;4.970;2023-04-24T06:18:02;100181.03;;;10.00;100.00
54172;BME280;40076;52.354;4.970;2023-04-24T06:20:28;100188.69;;;9.98;100.00
54172;BME280;40076;52.354;4.970;2023-04-24T06:22:53;100201.56;;;9.92;100.00
54172;BME280;40076;52.354;4.970;2023-04-24T06:25:19;100213.63;;;9.95;100.00
54172;BME280;40076;52.354;4.970;2023-04-24T06:27:44;100210.81;;;9.91;100.00
54172;BME280;40076;52.354;4.970;2023-04-24T06:30:10;100218.44;;;9.89;100.00
54172;BME280;40076;52.354;4.970;2023-04-24T06:32:36;100223.16;;;9.92;100.00
54172;BME280;40076;52.354;4.970;2023-04-24T06:35:01;100229.81;;;9.95;100.00
54172;BME280;40076;52.354;4.970;2023-04-24T06:37:26;100229.03;;;9.94;100.00
54172;BME280;40076;52.354;4.970;2023-04-24T06:39:52;100250.81;;;9.89;100.00
54172;BME280;40076;52.354;4.970;2023-04-24T06:42:17;100248.13;;;9.89;100.00
54172;BME280;40076;52.354;4.970;2023-04-24T06:44:42;100248.13;;;9.89;100.00
54172;BME280;40076;52.354;4.970;2023-04-24T06:47:09;100254.16;;;9.86;100.00
54172;BME280;40076;52.354;4.970;2023-04-24T06:49:38;100256.84;;;9.86;100.00
54172;BME280;40076;52.354;4.970;2023-04-24T06:52:03;100258.44;;;9.87;100.00
54172;BME280;40076;52.354;4.970;2023-04-24T06:54:30;100277.81;;;9.89;100.00
54172;BME280;40076;52.354;4.970;2023-04-24T06:56:56;100271.94;;;9.87;100.00
54172;BME280;40076;52.354;4.970;2023-04-24T06:59:25;100273.19;;;9.90;100.00
54172;BME280;40076;52.354;4.970;2023-04-24T07:01:50;100281.28;;;9.90;100.00
54172;BME280;40076;52.354;4.970;2023-04-24T07:04:18;100275.91;;;9.90;100.00
54172;BME280;40076;52.354;4.970;2023-04-24T07:06:45;100288.28;;;9.91;100.00
54172;BME280;40076;52.354;4.970;2023-04-24T07:09:11;100291.13;;;9.86;100.00
54172;BME280;40076;52.354;4.970;2023-04-24T07:11:38;100287.00;;;9.88;100.00
54172;BME280;40076;52.354;4.970;2023-04-24T07:14:05;100303.66;;;9.90;100.00
54172;BME280;40076;52.354;4.970;2023-04-24T07:16:31;100309.88;;;9.91;100.00
54172;BME280;40076;52.354;4.970;2023-04-24T07:18:56;100305.75;;;9.85;100.00
54172;BME280;40076;52.354;4.970;2023-04-24T07:21:21;100330.03;;;9.85;100.00
54172;BME280;40076;52.354;4.970;2023-04-24T07:23:52;100331.81;;;9.81;100.00
54172;BME280;40076;52.354;4.970;2023-04-24T07:26:18;100335.94;;;9.78;100.00
54172;BME280;40076;52.354;4.970;2023-04-24T07:28:43;100335.50;;;9.76;100.00
54172;BME280;40076;52.354;4.970;2023-04-24T07:31:08;100343.28;;;9.69;100.00
54172;BME280;40076;52.354;4.970;2023-04-24T07:33:34;100334.59;;;9.63;100.00
54172;BME280;40076;52.354;4.970;2023-04-24T07:36:01;100355.84;;;9.65;100.00
54172;BME280;40076;52.354;4.970;2023-04-24T07:38:29;100365.09;;;9.55;100.00
54172;BME280;40076;52.354;4.970;2023-04-24T07:40:54;100367.63;;;9.60;100.00
54172;BME280;40076;52.354;4.970;2023-04-24T07:43:20;100359.53;;;9.60;100.00
54172;BME280;40076;52.354;4.970;2023-04-24T07:45:46;100372.66;;;9.62;100.00
54172;BME280;40076;52.354;4.970;2023-04-24T07:48:11;100376.81;;;9.59;100.00
54172;BME280;40076;52.354;4.970;2023-04-24T07:50:39;100389.03;;;9.57;100.00
54172;BME280;40076;52.354;4.970;2023-04-24T07:53:05;100399.03;;;9.56;100.00
54172;BME280;40076;52.354;4.970;2023-04-24T07:55:30;100401.59;;;9.53;100.00
54172;BME280;40076;52.354;4.970;2023-04-24T07:57:55;100407.00;;;9.44;100.00
54172;BME280;40076;52.354;4.970;2023-04-24T08:00:21;100399.72;;;9.45;100.00
54172;BME280;40076;52.354;4.970;2023-04-24T08:02:46;100415.09;;;9.44;100.00
54172;BME280;40076;52.354;4.970;2023-04-24T08:05:11;100417.94;;;9.48;100.00
54172;BME280;40076;52.354;4.970;2023-04-24T08:07:37;100422.53;;;9.47;100.00
54172;BME280;40076;52.354;4.970;2023-04-24T08:10:03;100414.00;;;9.45;100.00
54172;BME280;40076;52.354;4.970;2023-04-24T08:12:29;100419.03;;;9.47;100.00
54172;BME280;40076;52.354;4.970;2023-04-24T08:14:54;100428.28;;;9.46;100.00
54172;BME280;40076;52.354;4.970;2023-04-24T08:17:20;100433.50;;;9.42;100.00
54172;BME280;40076;52.354;4.970;2023-04-24T08:19:45;100440.66;;;9.38;100.00
54172;BME280;40076;52.354;4.970;2023-04-24T08:22:14;100446.97;;;9.42;100.00
54172;BME280;40076;52.354;4.970;2023-04-24T08:24:40;100457.94;;;9.37;100.00
54172;BME280;40076;52.354;4.970;2023-04-24T08:27:05;100458.56;;;9.43;100.00
54172;BME280;40076;52.354;4.970;2023-04-24T08:29:30;100468.38;;;9.47;100.00
54172;BME280;40076;52.354;4.970;2023-04-24T08:31:56;100483.44;;;9.48;100.00
54172;BME280;40076;52.354;4.970;2023-04-24T08:34:21;100480.63;;;9.45;100.00
54172;BME280;40076;52.354;4.970;2023-04-24T08:36:47;100486.63;;;9.50;100.00
54172;BME280;40076;52.354;4.970;2023-04-24T08:39:12;100478.06;;;9.48;100.00
54172;BME280;40076;52.354;4.970;2023-04-24T08:41:38;100484.06;;;9.54;100.00
54172;BME280;40076;52.354;4.970;2023-04-24T08:44:04;100487.56;;;9.54;100.00
54172;BME280;40076;52.354;4.970;2023-04-24T08:46:30;100483.75;;;9.55;100.00
54172;BME280;40076;52.354;4.970;2023-04-24T08:48:56;100492.81;;;9.59;100.00
54172;BME280;40076;52.354;4.970;2023-04-24T08:51:22;100501.22;;;9.58;100.00
54172;BME280;40076;52.354;4.970;2023-04-24T08:53:48;100502.81;;;9.59;100.00
54172;BME280;40076;52.354;4.970;2023-04-24T08:56:13;100503.28;;;9.61;100.00
54172;BME280;40076;52.354;4.970;2023-04-24T08:58:39;100512.00;;;9.58;100.00
54172;BME280;40076;52.354;4.970;2023-04-24T09:01:05;100516.28;;;9.59;100.00
54172;BME280;40076;52.354;4.970;2023-04-24T09:03:32;100508.50;;;9.57;100.00
54172;BME280;40076;52.354;4.970;2023-04-24T09:05:58;100514.69;;;9.58;100.00
54172;BME280;40076;52.354;4.970;2023-04-24T09:08:25;100525.50;;;9.58;100.00
54172;BME280;40076;52.354;4.970;2023-04-24T09:10:50;100527.22;;;9.54;100.00
54172;BME280;40076;52.354;4.970;2023-04-24T09:13:16;100525.31;;;9.54;100.00
54172;BME280;40076;52.354;4.970;2023-04-24T09:15:42;100526.78;;;9.52;100.00
54172;BME280;40076;52.354;4.970;2023-04-24T09:18:08;100526.28;;;9.50;100.00
54172;BME280;40076;52.354;4.970;2023-04-24T09:20:33;100537.56;;;9.52;100.00
54172;BME280;40076;52.354;4.970;2023-04-24T09:23:01;100533.75;;;9.53;100.00
54172;BME280;40076;52.354;4.970;2023-04-24T09:25:34;100533.09;;;9.56;100.00
54172;BME280;40076;52.354;4.970;2023-04-24T09:28:04;100549.59;;;9.54;100.00
54172;BME280;40076;52.354;4.970;2023-04-24T09:30:30;100542.63;;;9.62;100.00
54172;BME280;40076;52.354;4.970;2023-04-24T09:33:14;100543.41;;;9.62;100.00
54172;BME280;40076;52.354;4.970;2023-04-24T09:35:50;100557.06;;;9.66;100.00
54172;BME280;40076;52.354;4.970;2023-04-24T09:38:16;100552.94;;;9.68;100.00
54172;BME280;40076;52.354;4.970;2023-04-24T09:40:41;100559.59;;;9.71;100.00
54172;BME280;40076;52.354;4.970;2023-04-24T09:43:10;100550.38;;;9.72;100.00
54172;BME280;40076;52.354;4.970;2023-04-24T09:45:37;100551.66;;;9.75;100.00
54172;BME280;40076;52.354;4.970;2023-04-24T09:48:03;100565.59;;;9.77;100.00
54172;BME280;40076;52.354;4.970;2023-04-24T09:50:30;100564.50;;;9.78;100.00
54172;BME280;40076;52.354;4.970;2023-04-24T09:52:59;100565.78;;;9.80;100.00
54172;BME280;40076;52.354;4.970;2023-04-24T09:55:26;100567.19;;;9.86;100.00
54172;BME280;40076;52.354;4.970;2023-04-24T09:57:54;100573.88;;;9.89;100.00
54172;BME280;40076;52.354;4.970;2023-04-24T10:00:28;100584.34;;;9.90;100.00
54172;BME280;40076;52.354;4.970;2023-04-24T10:02:55;100580.19;;;9.93;100.00
54172;BME280;40076;52.354;4.970;2023-04-24T10:05:28;100580.84;;;9.90;100.00
54172;BME280;40076;52.354;4.970;2023-04-24T10:07:56;100579.41;;;9.92;100.00
54172;BME280;40076;52.354;4.970;2023-04-24T10:10:22;100589.41;;;9.92;100.00
54172;BME280;40076;52.354;4.970;2023-04-24T10:12:47;100603.22;;;9.90;100.00
54172;BME280;40076;52.354;4.970;2023-04-24T10:15:15;100610.84;;;9.88;100.00
54172;BME280;40076;52.354;4.970;2023-04-24T10:17:42;100615.28;;;9.84;100.00
54172;BME280;40076;52.354;4.970;2023-04-24T10:20:10;100604.34;;;9.81;100.00
54172;BME280;40076;52.354;4.970;2023-04-24T10:22:36;100596.72;;;9.83;100.00
54172;BME280;40076;52.354;4.970;2023-04-24T10:25:03;100624.16;;;9.85;100.00
54172;BME280;40076;52.354;4.970;2023-04-24T10:27:31;100614.16;;;9.85;100.00
54172;BME280;40076;52.354;4.970;2023-04-24T10:29:57;100632.28;;;9.85;100.00
54172;BME280;40076;52.354;4.970;2023-04-24T10:32:22;100630.38;;;9.85;100.00
54172;BME280;40076;52.354;4.970;2023-04-24T10:34:47;100627.84;;;9.89;100.00
54172;BME280;40076;52.354;4.970;2023-04-24T10:37:13;100626.56;;;9.86;100.00
54172;BME280;40076;52.354;4.970;2023-04-24T10:39:39;100634.66;;;9.86;100.00
54172;BME280;40076;52.354;4.970;2023-04-24T10:42:15;100627.03;;;9.88;100.00
54172;BME280;40076;52.354;4.970;2023-04-24T10:44:41;100631.16;;;9.94;100.00
54172;BME280;40076;52.354;4.970;2023-04-24T10:47:13;100633.22;;;9.97;100.00
54172;BME280;40076;52.354;4.970;2023-04-24T10:49:38;100629.25;;;10.03;100.00
54172;BME280;40076;52.354;4.970;2023-04-24T10:52:04;100640.97;;;10.07;100.00
54172;BME280;40076;52.354;4.970;2023-04-24T10:54:41;100635.13;;;10.14;100.00
54172;BME280;40076;52.354;4.970;2023-04-24T10:59:46;100631.31;;;10.24;100.00
54172;BME280;40076;52.354;4.970;2023-04-24T11:02:14;100643.06;;;10.28;100.00
54172;BME280;40076;52.354;4.970;2023-04-24T11:04:40;100643.38;;;10.35;100.00
54172;BME280;40076;52.354;4.970;2023-04-24T11:07:09;100648.28;;;10.33;100.00
54172;BME280;40076;52.354;4.970;2023-04-24T11:09:34;100650.81;;;10.38;100.00
54172;BME280;40076;52.354;4.970;2023-04-24T11:12:06;100661.78;;;10.41;100.00
54172;BME280;40076;52.354;4.970;2023-04-24T11:20:00;100673.38;;;10.42;100.00
54172;BME280;40076;52.354;4.970;2023-04-24T11:22:28;100663.19;;;10.48;100.00
54172;BME280;40076;52.354;4.970;2023-04-24T11:24:54;100659.06;;;10.50;100.00
54172;BME280;40076;52.354;4.970;2023-04-24T11:27:21;100669.84;;;10.50;100.00
54172;BME280;40076;52.354;4.970;2023-04-24T11:37:23;100671.72;;;10.67;100.00
54172;BME280;40076;52.354;4.970;2023-04-24T11:39:54;100668.03;;;10.71;100.00
54172;BME280;40076;52.354;4.970;2023-04-24T11:42:21;100669.44;;;10.77;100.00
54172;BME280;40076;52.354;4.970;2023-04-24T11:44:47;100668.16;;;10.83;100.00
54172;BME280;40076;52.354;4.970;2023-04-24T11:47:14;100678.00;;;10.88;100.00
54172;BME280;40076;52.354;4.970;2023-04-24T11:49:39;100691.00;;;10.95;100.00
54172;BME280;40076;52.354;4.970;2023-04-24T11:52:05;100671.44;;;10.98;100.00
54172;BME280;40076;52.354;4.970;2023-04-24T11:54:30;100683.81;;;10.99;100.00
54172;BME280;40076;52.354;4.970;2023-04-24T11:56:56;100681.91;;;10.99;100.00
54172;BME280;40076;52.354;4.970;2023-04-24T11:59:21;100690.81;;;11.00;100.00
54172;BME280;40076;52.354;4.970;2023-04-24T12:01:48;100703.53;;;10.99;100.00
54172;BME280;40076;52.354;4.970;2023-04-24T12:04:15;100710.09;;;10.98;100.00
54172;BME280;40076;52.354;4.970;2023-04-24T12:06:58;100724.09;;;10.92;100.00
54172;BME280;40076;52.354;4.970;2023-04-24T12:09:24;100723.78;;;10.93;100.00
54172;BME280;40076;52.354;4.970;2023-04-24T12:11:54;100724.91;;;10.83;100.00
54172;BME280;40076;52.354;4.970;2023-04-24T12:14:22;100749.28;;;10.66;100.00
54172;BME280;40076;52.354;4.970;2023-04-24T12:16:48;100748.69;;;10.52;100.00
54172;BME280;40076;52.354;4.970;2023-04-24T12:19:20;100746.94;;;10.48;100.00
54172;BME280;40076;52.354;4.970;2023-04-24T12:22:01;100744.88;;;10.44;100.00
54172;BME280;40076;52.354;4.970;2023-04-24T12:24:27;100752.19;;;10.44;100.00
54172;BME280;40076;52.354;4.970;2023-04-24T12:26:52;100753.63;;;10.41;100.00
54172;BME280;40076;52.354;4.970;2023-04-24T12:29:22;100741.22;;;10.40;100.00
54172;BME280;40076;52.354;4.970;2023-04-24T12:31:48;100762.66;;;10.45;100.00
54172;BME280;40076;52.354;4.970;2023-04-24T12:34:20;100760.75;;;10.46;100.00
54172;BME280;40076;52.354;4.970;2023-04-24T12:36:47;100757.41;;;10.49;100.00
54172;BME280;40076;52.354;4.970;2023-04-24T12:39:19;100765.84;;;10.48;100.00
54172;BME280;40076;52.354;4.970;2023-04-24T12:41:57;100767.13;;;10.50;100.00
54172;BME280;40076;52.354;4.970;2023-04-24T12:44:32;100770.31;;;10.52;100.00
54172;BME280;40076;52.354;4.970;2023-04-24T12:47:00;100776.81;;;10.51;100.00
54172;BME280;40076;52.354;4.970;2023-04-24T12:49:25;100775.53;;;10.57;100.00
54172;BME280;40076;52.354;4.970;2023-04-24T12:51:50;100786.34;;;10.57;100.00
54172;BME280;40076;52.354;4.970;2023-04-24T12:54:16;100785.84;;;10.55;100.00
54172;BME280;40076;52.354;4.970;2023-04-24T12:56:41;100774.13;;;10.51;100.00
54172;BME280;40076;52.354;4.970;2023-04-24T12:59:06;100780.75;;;10.54;100.00
54172;BME280;40076;52.354;4.970;2023-04-24T13:01:32;100790.16;;;10.56;100.00